createdAt,value
2023-01-17T00:02:00.932Z,7.80
2023-01-17T00:04:47.114Z,7.80
2023-01-17T00:07:33.693Z,7.80
2023-01-17T00:10:01.590Z,7.90
2023-01-17T00:12:30.837Z,7.90
2023-01-17T00:14:58.303Z,8.00
2023-01-17T00:17:25.867Z,8.10
2023-01-17T00:20:11.380Z,8.10
2023-01-17T00:22:56.886Z,8.10
2023-01-17T00:25:45.298Z,8.10
2023-01-17T00:28:12.123Z,8.10
2023-01-17T00:30:38.865Z,8.10
2023-01-17T00:33:05.636Z,8.10
2023-01-17T00:35:32.613Z,8.00
2023-01-17T00:38:06.313Z,8.00
2023-01-17T00:40:33.980Z,8.10
2023-01-17T00:43:19.443Z,8.10
2023-01-17T00:46:04.853Z,8.10
2023-01-17T00:48:50.719Z,8.20
2023-01-17T00:51:35.924Z,8.30
2023-01-17T00:54:21.318Z,8.30
2023-01-17T00:57:06.833Z,8.40
2023-01-17T00:59:52.256Z,8.40
2023-01-17T01:02:37.843Z,8.50
2023-01-17T01:05:23.458Z,8.50
2023-01-17T01:08:09.054Z,8.50
2023-01-17T01:10:54.537Z,8.40
2023-01-17T01:13:43.822Z,8.50
2023-01-17T01:16:29.020Z,8.50
2023-01-17T01:19:14.275Z,8.60
2023-01-17T01:21:59.858Z,8.60
2023-01-17T01:24:45.308Z,8.70
2023-01-17T01:27:30.813Z,8.70
2023-01-17T01:30:16.353Z,8.80
2023-01-17T01:33:01.936Z,8.90
2023-01-17T01:35:28.879Z,8.90
2023-01-17T01:37:55.795Z,9.00
2023-01-17T01:40:22.665Z,9.10
2023-01-17T01:42:53.775Z,9.10
2023-01-17T01:45:28.780Z,9.00
2023-01-17T01:48:07.412Z,9.00
2023-01-17T01:50:35.113Z,8.90
2023-01-17T01:53:02.789Z,8.80
2023-01-17T01:55:35.030Z,8.80
2023-01-17T01:58:33.474Z,8.80
2023-01-17T02:01:00.359Z,8.80
2023-01-17T02:03:29.439Z,8.80
2023-01-17T02:05:57.660Z,8.80
2023-01-17T02:08:24.483Z,8.80
2023-01-17T02:10:51.312Z,8.80
2023-01-17T02:13:19.233Z,8.80
2023-01-17T02:15:55.335Z,8.80
2023-01-17T02:18:41.480Z,8.70
2023-01-17T02:21:41.904Z,8.70
2023-01-17T02:24:26.819Z,8.50
2023-01-17T02:27:12.647Z,8.50
2023-01-17T02:29:58.085Z,8.30
2023-01-17T02:32:30.636Z,8.20
2023-01-17T02:35:05.157Z,8.10
2023-01-17T02:37:40.706Z,8.00
2023-01-17T02:40:13.181Z,7.90
2023-01-17T02:42:47.129Z,7.80
2023-01-17T02:45:18.068Z,7.70
2023-01-17T02:47:44.819Z,7.70
2023-01-17T02:50:20.555Z,7.60
2023-01-17T02:53:20.257Z,7.60
2023-01-17T02:56:14.212Z,7.60
2023-01-17T02:59:00.959Z,7.60
2023-01-17T03:01:37.107Z,7.60
2023-01-17T03:04:15.486Z,7.80
2023-01-17T03:07:04.812Z,7.90
2023-01-17T03:09:31.711Z,8.00
2023-01-17T03:11:58.876Z,8.10
2023-01-17T03:14:25.751Z,8.10
2023-01-17T03:16:52.734Z,8.10
2023-01-17T03:19:19.567Z,8.00
2023-01-17T03:21:46.357Z,8.00
2023-01-17T03:24:13.153Z,8.10
2023-01-17T03:26:39.967Z,8.10
2023-01-17T03:29:06.786Z,8.20
2023-01-17T03:31:33.631Z,8.30
2023-01-17T03:34:00.438Z,8.40
2023-01-17T03:36:27.259Z,8.50
2023-01-17T03:38:54.065Z,8.50
2023-01-17T03:41:20.871Z,8.60
2023-01-17T03:43:47.802Z,8.60
2023-01-17T03:46:21.575Z,8.60
2023-01-17T03:48:48.576Z,8.60
2023-01-17T03:51:15.455Z,8.60
2023-01-17T03:53:42.469Z,8.50
2023-01-17T03:56:09.406Z,8.50
2023-01-17T03:58:36.249Z,8.30
2023-01-17T04:01:03.202Z,8.30
2023-01-17T04:03:30.171Z,8.20
2023-01-17T04:05:56.987Z,8.10
2023-01-17T04:08:24.197Z,8.00
2023-01-17T04:10:50.961Z,8.00
2023-01-17T04:13:17.831Z,8.00
2023-01-17T04:15:48.554Z,7.90
2023-01-17T04:18:19.325Z,7.90
2023-01-17T04:20:46.200Z,7.80
2023-01-17T04:23:13.131Z,7.80
2023-01-17T04:25:39.963Z,7.70
2023-01-17T04:28:06.784Z,7.60
2023-01-17T04:30:33.871Z,7.60
2023-01-17T04:33:00.780Z,7.50
2023-01-17T04:35:29.854Z,7.60
2023-01-17T04:37:56.707Z,7.60
2023-01-17T04:40:23.927Z,7.60
2023-01-17T04:42:51.446Z,7.60
2023-01-17T04:45:18.388Z,7.60
2023-01-17T04:47:45.265Z,7.50
2023-01-17T04:50:12.184Z,7.40
2023-01-17T04:52:39.078Z,7.40
2023-01-17T04:55:06.489Z,7.50
2023-01-17T04:57:33.290Z,7.50
2023-01-17T05:00:00.073Z,7.50
2023-01-17T05:02:26.926Z,7.50
2023-01-17T05:04:53.738Z,7.50
2023-01-17T05:07:20.504Z,7.60
2023-01-17T05:09:47.737Z,7.70
2023-01-17T05:12:14.585Z,7.70
2023-01-17T05:14:41.416Z,7.80
2023-01-17T05:17:08.421Z,7.80
2023-01-17T05:19:35.315Z,7.90
2023-01-17T05:22:04.155Z,7.80
2023-01-17T05:24:31.530Z,7.80
2023-01-17T05:27:03.021Z,7.80
2023-01-17T05:29:30.493Z,7.70
2023-01-17T05:31:57.396Z,7.70
2023-01-17T05:34:24.373Z,7.80
2023-01-17T05:36:51.282Z,7.80
2023-01-17T05:39:18.342Z,7.70
2023-01-17T05:41:45.256Z,7.70
2023-01-17T05:44:12.206Z,7.60
2023-01-17T05:46:39.057Z,7.60
2023-01-17T05:49:05.980Z,7.70
2023-01-17T05:51:32.852Z,7.80
2023-01-17T05:53:59.695Z,7.80
2023-01-17T05:56:26.561Z,7.90
2023-01-17T05:58:53.413Z,7.90
2023-01-17T06:01:20.214Z,7.90
2023-01-17T06:03:47.061Z,7.90
2023-01-17T06:06:13.899Z,7.80
2023-01-17T06:08:40.842Z,7.80
2023-01-17T06:11:07.688Z,7.70
2023-01-17T06:13:34.500Z,7.70
2023-01-17T06:16:03.009Z,7.60
2023-01-17T06:18:30.515Z,7.50
2023-01-17T06:20:57.419Z,7.40
2023-01-17T06:23:24.800Z,7.40
2023-01-17T06:25:51.641Z,7.40
2023-01-17T06:28:20.149Z,7.40
2023-01-17T06:30:47.033Z,7.30
2023-01-17T06:33:14.042Z,7.30
2023-01-17T06:35:46.763Z,7.20
2023-01-17T06:38:13.633Z,7.20
2023-01-17T06:40:40.439Z,7.10
2023-01-17T06:43:07.243Z,7.10
2023-01-17T06:45:34.782Z,7.10
2023-01-17T06:48:03.728Z,7.00
2023-01-17T06:50:30.892Z,7.00
2023-01-17T06:52:59.791Z,7.10
2023-01-17T06:55:29.874Z,7.10
2023-01-17T06:57:57.811Z,7.20
2023-01-17T07:00:24.823Z,7.30
2023-01-17T07:02:52.034Z,7.50
2023-01-17T07:05:19.069Z,7.50
2023-01-17T07:07:46.243Z,7.50
2023-01-17T07:10:13.921Z,7.50
2023-01-17T07:12:40.918Z,7.50
2023-01-17T07:15:08.243Z,7.50
2023-01-17T07:17:35.266Z,7.60
2023-01-17T07:20:02.197Z,7.70
2023-01-17T07:22:28.966Z,7.70
2023-01-17T07:24:58.673Z,7.80
2023-01-17T07:27:27.752Z,8.00
2023-01-17T07:29:54.738Z,8.10
2023-01-17T07:32:21.731Z,8.30
2023-01-17T07:34:48.627Z,8.30
2023-01-17T07:37:15.626Z,8.60
2023-01-17T07:39:42.509Z,10.10
2023-01-17T07:42:09.392Z,11.80
2023-01-17T07:44:36.275Z,13.40
2023-01-17T07:47:04.346Z,14.60
2023-01-17T07:49:31.200Z,15.80
2023-01-17T07:51:58.001Z,16.30
2023-01-17T07:54:24.835Z,16.40
2023-01-17T07:56:51.644Z,15.90
2023-01-17T07:59:18.560Z,14.80
2023-01-17T08:01:45.569Z,13.90
2023-01-17T08:04:14.188Z,13.20
2023-01-17T08:06:42.948Z,12.70
2023-01-17T08:09:09.870Z,12.50
2023-01-17T08:11:36.676Z,12.70
2023-01-17T08:14:03.520Z,13.00
2023-01-17T08:16:30.430Z,13.10
2023-01-17T08:18:57.454Z,13.10
2023-01-17T08:21:24.470Z,13.00
2023-01-17T08:23:52.210Z,13.00
2023-01-17T08:26:22.731Z,13.00
2023-01-17T08:28:56.923Z,12.70
2023-01-17T08:31:24.176Z,12.50
2023-01-17T08:33:51.108Z,12.40
2023-01-17T08:36:17.953Z,12.10
2023-01-17T08:38:44.774Z,11.90
2023-01-17T08:41:12.967Z,11.80
2023-01-17T08:43:39.823Z,11.70
2023-01-17T08:46:06.758Z,11.90
2023-01-17T08:48:33.571Z,12.00
2023-01-17T08:51:02.009Z,12.10
2023-01-17T08:53:28.873Z,12.20
2023-01-17T08:55:59.757Z,12.40
2023-01-17T08:58:27.208Z,13.00
2023-01-17T09:00:54.583Z,13.50
2023-01-17T09:03:21.750Z,13.90
2023-01-17T09:05:48.551Z,14.30
2023-01-17T09:08:15.384Z,14.80
2023-01-17T09:10:42.219Z,15.20
2023-01-17T09:13:09.074Z,15.30
2023-01-17T09:15:35.895Z,15.40
2023-01-17T09:18:02.743Z,15.60
2023-01-17T09:20:30.880Z,15.60
2023-01-17T09:22:57.794Z,15.70
2023-01-17T09:25:24.719Z,15.80
2023-01-17T09:27:51.645Z,16.00
2023-01-17T09:30:18.522Z,16.50
2023-01-17T09:32:51.917Z,17.20
2023-01-17T09:35:18.784Z,17.40
2023-01-17T09:37:45.601Z,17.30
2023-01-17T09:40:14.810Z,17.00
2023-01-17T09:42:41.615Z,16.80
2023-01-17T09:45:18.525Z,16.50
2023-01-17T09:47:51.367Z,16.00
2023-01-17T09:50:42.925Z,15.60
2023-01-17T09:53:14.172Z,15.10
2023-01-17T09:55:42.414Z,14.60
2023-01-17T09:58:17.960Z,14.40
2023-01-17T10:00:59.822Z,14.30
2023-01-17T10:03:32.563Z,14.20
2023-01-17T10:06:02.361Z,14.00
2023-01-17T10:08:32.022Z,13.90
2023-01-17T10:11:34.891Z,14.00
2023-01-17T10:14:17.841Z,14.20
2023-01-17T10:16:50.692Z,14.20
2023-01-17T10:20:15.685Z,14.10
2023-01-17T10:23:10.033Z,13.90
2023-01-17T10:25:58.387Z,13.90
2023-01-17T10:28:35.002Z,13.90
2023-01-17T10:31:07.544Z,14.00
2023-01-17T10:33:53.054Z,14.00
2023-01-17T10:36:27.606Z,13.90
2023-01-17T10:39:02.791Z,13.80
2023-01-17T10:41:30.883Z,13.70
2023-01-17T10:44:18.575Z,13.50
2023-01-17T10:46:47.197Z,13.40
2023-01-17T10:49:19.177Z,13.40
2023-01-17T10:52:04.158Z,13.10
2023-01-17T10:54:45.340Z,13.00
2023-01-17T10:57:39.388Z,12.90
2023-01-17T11:00:23.721Z,12.80
2023-01-17T11:02:51.590Z,12.80
2023-01-17T11:05:26.817Z,12.80
2023-01-17T11:08:04.213Z,12.90
2023-01-17T11:10:50.237Z,12.90
2023-01-17T11:13:25.521Z,12.90
2023-01-17T11:15:57.585Z,12.90
2023-01-17T11:18:27.705Z,13.00
2023-01-17T11:21:06.566Z,12.80
2023-01-17T11:23:34.028Z,12.70
2023-01-17T11:26:04.792Z,12.70
2023-01-17T11:28:32.923Z,12.70
2023-01-17T11:31:01.228Z,12.70
2023-01-17T11:33:55.720Z,12.70
2023-01-17T11:36:30.228Z,12.70
2023-01-17T11:39:04.133Z,12.60
2023-01-17T11:41:39.274Z,12.50
2023-01-17T11:44:32.992Z,12.50
2023-01-17T11:47:14.570Z,12.50
2023-01-17T11:49:42.633Z,12.50
2023-01-17T11:52:27.219Z,12.50
2023-01-17T11:54:54.483Z,12.50
2023-01-17T11:57:31.699Z,12.40
2023-01-17T12:00:33.100Z,12.40
2023-01-17T12:03:39.054Z,12.40
2023-01-17T12:06:56.754Z,12.30
2023-01-17T12:09:27.480Z,12.30
2023-01-17T12:12:27.657Z,12.30
2023-01-17T12:15:25.195Z,12.20
2023-01-17T12:18:13.643Z,12.10
2023-01-17T12:21:17.454Z,12.10
2023-01-17T12:23:58.094Z,12.10
2023-01-17T12:26:42.282Z,12.10
2023-01-17T12:29:34.769Z,12.20
2023-01-17T12:32:04.649Z,12.20
2023-01-17T12:34:39.216Z,12.20
2023-01-17T12:37:19.418Z,12.20
2023-01-17T12:40:17.310Z,12.20
2023-01-17T12:42:48.843Z,12.20
2023-01-17T12:45:25.979Z,12.30
2023-01-17T12:47:58.575Z,12.30
2023-01-17T12:50:46.223Z,12.30
2023-01-17T12:53:23.019Z,12.30
2023-01-17T12:56:02.737Z,12.30
2023-01-17T12:58:41.484Z,12.20
2023-01-17T13:01:29.706Z,12.30
2023-01-17T13:04:32.088Z,12.40
2023-01-17T13:06:58.957Z,12.50
2023-01-17T13:09:28.076Z,12.50
2023-01-17T13:12:00.934Z,12.40
2023-01-17T13:14:28.089Z,12.40
2023-01-17T13:16:59.641Z,12.30
2023-01-17T13:19:34.034Z,12.40
2023-01-17T13:22:01.427Z,12.40
2023-01-17T13:24:31.295Z,12.30
2023-01-17T13:27:02.436Z,12.30
2023-01-17T13:30:05.643Z,12.20
2023-01-17T13:32:47.607Z,12.30
2023-01-17T13:35:27.733Z,12.30
2023-01-17T13:38:17.687Z,12.20
2023-01-17T13:40:53.843Z,12.20
2023-01-17T13:43:25.776Z,12.20
2023-01-17T13:45:57.072Z,12.20
2023-01-17T13:48:29.335Z,12.20
2023-01-17T13:51:05.764Z,12.10
2023-01-17T13:53:35.360Z,12.10
2023-01-17T13:56:31.451Z,12.00
2023-01-17T13:59:02.741Z,12.10
2023-01-17T14:01:34.701Z,12.10
2023-01-17T14:04:03.027Z,12.20
2023-01-17T14:06:36.313Z,12.20
2023-01-17T14:09:12.530Z,12.20
2023-01-17T14:11:59.688Z,12.10
2023-01-17T14:14:41.787Z,12.10
2023-01-17T14:17:20.474Z,12.10
2023-01-17T14:19:51.436Z,12.10
2023-01-17T14:22:21.094Z,12.10
2023-01-17T14:25:12.178Z,12.10
2023-01-17T14:27:42.071Z,12.10
2023-01-17T14:30:22.365Z,12.00
2023-01-17T14:33:18.960Z,12.00
2023-01-17T14:35:53.190Z,11.90
2023-01-17T14:38:27.897Z,11.90
2023-01-17T14:41:07.926Z,11.90
2023-01-17T14:43:35.893Z,11.90
2023-01-17T14:46:06.877Z,11.80
2023-01-17T14:48:33.735Z,11.80
2023-01-17T14:51:01.233Z,11.70
2023-01-17T14:53:31.716Z,11.70
2023-01-17T14:56:02.523Z,11.70
2023-01-17T14:58:31.121Z,11.70
2023-01-17T15:01:06.981Z,11.70
2023-01-17T15:03:58.180Z,11.80
2023-01-17T15:06:30.127Z,11.80
2023-01-17T15:08:56.965Z,11.80
2023-01-17T15:11:30.221Z,11.80
2023-01-17T15:13:57.810Z,11.90
2023-01-17T15:16:25.719Z,11.90
2023-01-17T15:18:53.212Z,11.90
2023-01-17T15:21:24.579Z,12.00
2023-01-17T15:24:01.403Z,11.90
2023-01-17T15:26:30.050Z,11.80
2023-01-17T15:29:07.877Z,11.80
2023-01-17T15:31:45.873Z,11.70
2023-01-17T15:34:53.945Z,11.60
2023-01-17T15:37:37.106Z,11.50
2023-01-17T15:40:16.861Z,11.40
2023-01-17T15:42:44.272Z,11.30
2023-01-17T15:45:13.087Z,11.10
2023-01-17T15:47:39.943Z,11.00
2023-01-17T15:50:28.622Z,10.90
2023-01-17T15:53:00.366Z,10.80
2023-01-17T15:55:39.464Z,10.70
2023-01-17T15:58:23.004Z,10.60
2023-01-17T16:00:49.906Z,10.60
2023-01-17T16:03:19.778Z,10.50
2023-01-17T16:05:46.907Z,10.40
2023-01-17T16:08:16.377Z,10.30
2023-01-17T16:10:43.432Z,10.30
2023-01-17T16:13:11.276Z,10.20
2023-01-17T16:15:38.390Z,10.10
2023-01-17T16:18:07.568Z,9.90
2023-01-17T16:20:39.472Z,9.70
2023-01-17T16:23:06.340Z,9.60
2023-01-17T16:25:33.130Z,9.50
2023-01-17T16:28:00.058Z,9.50
2023-01-17T16:30:27.350Z,9.40
2023-01-17T16:32:55.683Z,9.30
2023-01-17T16:35:24.429Z,9.40
2023-01-17T16:37:52.641Z,9.40
2023-01-17T16:40:20.383Z,9.40
2023-01-17T16:42:47.701Z,9.40
2023-01-17T16:45:14.829Z,9.50
2023-01-17T16:47:42.292Z,9.50
2023-01-17T16:50:14.209Z,9.50
2023-01-17T16:52:41.077Z,9.50
2023-01-17T16:55:11.088Z,9.50
2023-01-17T16:57:38.134Z,9.50
2023-01-17T17:00:05.951Z,9.40
2023-01-17T17:02:32.987Z,9.40
2023-01-17T17:05:00.046Z,9.40
2023-01-17T17:07:26.896Z,9.40
2023-01-17T17:09:53.739Z,9.40
2023-01-17T17:12:20.530Z,9.50
2023-01-17T17:14:47.316Z,9.50
2023-01-17T17:17:14.124Z,9.50
2023-01-17T17:19:40.887Z,9.50
2023-01-17T17:22:07.778Z,9.50
2023-01-17T17:24:34.648Z,9.60
2023-01-17T17:27:01.469Z,9.60
2023-01-17T17:29:28.286Z,9.60
2023-01-17T17:31:55.096Z,9.60
2023-01-17T17:34:23.311Z,9.60
2023-01-17T17:36:50.153Z,9.50
2023-01-17T17:39:16.968Z,9.50
2023-01-17T17:41:44.603Z,9.50
2023-01-17T17:44:11.831Z,9.50
2023-01-17T17:46:38.761Z,9.50
2023-01-17T17:49:06.823Z,9.50
2023-01-17T17:51:37.990Z,9.60
2023-01-17T17:54:09.487Z,9.70
2023-01-17T17:56:36.771Z,9.90
2023-01-17T17:59:04.489Z,9.90
2023-01-17T18:01:31.500Z,9.90
2023-01-17T18:04:01.906Z,9.90
2023-01-17T18:06:28.702Z,9.90
2023-01-17T18:08:55.573Z,9.90
2023-01-17T18:11:24.160Z,9.80
2023-01-17T18:13:51.404Z,9.70
2023-01-17T18:16:37.332Z,9.60
2023-01-17T18:19:04.444Z,9.60
2023-01-17T18:21:32.864Z,9.70
2023-01-17T18:24:06.548Z,9.70
2023-01-17T18:26:43.760Z,9.70
2023-01-17T18:29:12.476Z,9.70
2023-01-17T18:31:39.427Z,9.70
2023-01-17T18:34:07.983Z,9.70
2023-01-17T18:36:35.128Z,9.70
2023-01-17T18:39:02.493Z,9.70
2023-01-17T18:41:31.108Z,9.70
2023-01-17T18:43:58.230Z,9.80
2023-01-17T18:46:26.042Z,9.80
2023-01-17T18:48:55.112Z,9.80
2023-01-17T18:51:22.004Z,9.80
2023-01-17T18:53:48.825Z,9.90
2023-01-17T18:56:18.045Z,9.80
2023-01-17T18:58:45.871Z,9.80
2023-01-17T19:01:14.668Z,9.90
2023-01-17T19:03:42.589Z,10.00
2023-01-17T19:06:14.639Z,10.00
2023-01-17T19:08:41.851Z,10.10
2023-01-17T19:11:09.276Z,10.10
2023-01-17T19:13:36.906Z,10.00
2023-01-17T19:16:05.268Z,9.90
2023-01-17T19:18:32.098Z,9.90
2023-01-17T19:21:09.874Z,9.90
2023-01-17T19:23:36.888Z,10.00
2023-01-17T19:26:04.393Z,10.00
2023-01-17T19:28:31.371Z,10.00
2023-01-17T19:31:05.343Z,10.10
2023-01-17T19:33:32.262Z,10.10
2023-01-17T19:36:00.443Z,10.10
2023-01-17T19:38:27.629Z,10.00
2023-01-17T19:40:54.607Z,9.90
2023-01-17T19:43:21.840Z,10.00
2023-01-17T19:45:58.837Z,10.00
2023-01-17T19:48:29.098Z,10.00
2023-01-17T19:50:55.995Z,10.10
2023-01-17T19:53:23.189Z,10.10
2023-01-17T19:55:49.978Z,10.10
2023-01-17T19:58:16.851Z,10.10
2023-01-17T20:00:49.749Z,10.10
2023-01-17T20:03:16.627Z,10.10
2023-01-17T20:05:44.937Z,10.10
2023-01-17T20:08:11.797Z,10.10
2023-01-17T20:10:38.688Z,10.10
2023-01-17T20:13:05.747Z,9.90
2023-01-17T20:15:32.611Z,9.60
2023-01-17T20:17:59.729Z,9.50
2023-01-17T20:20:26.615Z,9.50
2023-01-17T20:22:53.780Z,9.50
2023-01-17T20:25:20.663Z,9.60
2023-01-17T20:27:47.568Z,9.60
2023-01-17T20:30:20.187Z,9.60
2023-01-17T20:32:47.877Z,9.70
2023-01-17T20:35:15.580Z,9.60
2023-01-17T20:37:42.460Z,9.60
2023-01-17T20:40:10.119Z,9.50
2023-01-17T20:42:36.986Z,9.50
2023-01-17T20:45:04.307Z,9.60
2023-01-17T20:47:31.092Z,9.50
2023-01-17T20:49:58.067Z,9.40
2023-01-17T20:52:25.067Z,9.40
2023-01-17T20:54:52.025Z,9.30
2023-01-17T20:57:21.624Z,9.30
2023-01-17T20:59:48.980Z,9.30
2023-01-17T21:02:16.019Z,9.30
2023-01-17T21:04:42.893Z,9.20
2023-01-17T21:07:09.816Z,9.20
2023-01-17T21:09:36.883Z,9.20
2023-01-17T21:12:04.318Z,9.10
2023-01-17T21:14:31.369Z,9.10
2023-01-17T21:16:58.243Z,9.00
2023-01-17T21:19:25.068Z,9.00
2023-01-17T21:21:52.178Z,8.90
2023-01-17T21:24:19.654Z,9.00
2023-01-17T21:26:46.876Z,9.00
2023-01-17T21:29:16.048Z,9.00
2023-01-17T21:31:43.224Z,9.00
2023-01-17T21:34:11.045Z,9.00
2023-01-17T21:36:39.296Z,8.80
2023-01-17T21:39:08.173Z,8.70
2023-01-17T21:41:39.728Z,8.60
2023-01-17T21:44:10.796Z,8.60
2023-01-17T21:46:40.897Z,8.60
2023-01-17T21:49:10.732Z,8.60
2023-01-17T21:51:53.344Z,8.70
2023-01-17T21:54:41.202Z,8.60
2023-01-17T21:57:26.921Z,8.60
2023-01-17T21:59:53.930Z,8.50
2023-01-17T22:02:21.005Z,8.60
2023-01-17T22:04:47.996Z,8.50
2023-01-17T22:07:14.936Z,8.50
2023-01-17T22:09:41.746Z,8.50
2023-01-17T22:12:08.591Z,8.50
2023-01-17T22:14:37.554Z,8.60
2023-01-17T22:17:04.333Z,8.60
2023-01-17T22:19:31.127Z,8.60
2023-01-17T22:21:57.898Z,8.60
2023-01-17T22:24:24.799Z,8.60
2023-01-17T22:26:51.624Z,8.60
2023-01-17T22:29:22.818Z,8.60
2023-01-17T22:31:49.595Z,8.60
2023-01-17T22:34:16.490Z,8.50
2023-01-17T22:36:43.422Z,8.50
2023-01-17T22:39:10.401Z,8.40
2023-01-17T22:41:37.933Z,8.40
2023-01-17T22:44:08.554Z,8.30
2023-01-17T22:46:37.241Z,8.30
2023-01-17T22:49:05.920Z,8.20
2023-01-17T22:51:32.796Z,8.10
2023-01-17T22:54:00.327Z,8.20
2023-01-17T22:56:29.025Z,8.20
2023-01-17T22:58:56.010Z,8.20
2023-01-17T23:01:27.624Z,8.20
2023-01-17T23:04:02.508Z,8.30
2023-01-17T23:06:34.154Z,8.40
2023-01-17T23:09:02.592Z,8.40
2023-01-17T23:11:43.338Z,8.40
2023-01-17T23:14:14.423Z,8.30
2023-01-17T23:17:08.725Z,8.30
2023-01-17T23:19:40.088Z,8.30
2023-01-17T23:22:20.747Z,8.30
2023-01-17T23:24:47.576Z,8.30
2023-01-17T23:27:37.448Z,8.30
2023-01-17T23:30:12.266Z,8.30
2023-01-17T23:32:40.138Z,8.20
2023-01-17T23:35:07.245Z,8.20
2023-01-17T23:37:52.894Z,8.10
2023-01-17T23:40:19.845Z,8.10
2023-01-17T23:43:05.095Z,8.10
2023-01-17T23:45:34.897Z,8.10
2023-01-17T23:48:01.995Z,8.20
2023-01-17T23:50:28.793Z,8.30
2023-01-17T23:52:55.970Z,8.30
2023-01-17T23:55:23.184Z,8.40
2023-01-17T23:57:51.516Z,8.40
